createdAt,value
2023-05-02T00:00:03.348Z,71.2531
2023-05-02T00:01:07.374Z,74.5870
2023-05-02T00:02:11.439Z,76.3125
2023-05-02T00:03:15.408Z,70.0553
2023-05-02T00:04:19.383Z,65.5510
2023-05-02T00:05:23.550Z,67.6865
2023-05-02T00:06:27.504Z,71.3421
2023-05-02T00:07:31.419Z,74.7506
2023-05-02T00:08:35.330Z,76.6663
2023-05-02T00:09:39.240Z,70.9207
2023-05-02T00:10:43.140Z,67.3316
2023-05-02T00:11:47.039Z,69.5538
2023-05-02T00:12:50.938Z,72.9246
2023-05-02T00:13:54.824Z,76.0797
2023-05-02T00:14:59.490Z,77.2388
2023-05-02T00:16:03.380Z,69.9911
2023-05-02T00:17:07.338Z,64.8853
2023-05-02T00:18:11.252Z,66.8430
2023-05-02T00:19:15.150Z,70.5335
2023-05-02T00:20:19.131Z,74.1405
2023-05-02T00:21:23.034Z,76.4730
2023-05-02T00:22:26.921Z,70.8473
2023-05-02T00:23:30.814Z,64.8179
2023-05-02T00:24:34.700Z,66.1513
2023-05-02T00:25:38.596Z,69.6981
2023-05-02T00:26:42.475Z,73.3044
2023-05-02T00:27:46.378Z,75.9696
2023-05-02T00:28:50.272Z,71.5251
2023-05-02T00:29:50.732Z,64.1274
2023-05-02T00:30:54.647Z,64.0410
2023-05-02T00:31:58.556Z,67.4539
2023-05-02T00:33:02.493Z,71.3223
2023-05-02T00:34:06.358Z,74.6555
2023-05-02T00:35:10.257Z,73.2970
2023-05-02T00:36:14.152Z,65.9178
2023-05-02T00:37:18.060Z,65.2730
2023-05-02T00:38:21.934Z,68.6518
2023-05-02T00:39:25.822Z,72.3747
2023-05-02T00:40:29.810Z,75.5611
2023-05-02T00:41:33.692Z,74.7060
2023-05-02T00:42:37.606Z,70.1717
2023-05-02T00:43:41.510Z,71.3132
2023-05-02T00:44:45.407Z,74.2516
2023-05-02T00:45:49.325Z,76.9441
2023-05-02T00:46:53.386Z,78.7956
2023-05-02T00:47:57.385Z,73.7067
2023-05-02T00:49:01.319Z,64.4419
2023-05-02T00:50:05.272Z,63.0651
2023-05-02T00:51:09.165Z,66.4338
2023-05-02T00:52:13.047Z,70.4854
2023-05-02T00:53:16.964Z,74.2036
2023-05-02T00:54:20.873Z,74.5660
2023-05-02T00:55:24.791Z,69.1566
2023-05-02T00:56:28.692Z,69.3385
2023-05-02T00:57:32.601Z,72.2242
2023-05-02T00:58:36.512Z,75.3751
2023-05-02T00:59:40.444Z,77.8961
2023-05-02T01:00:44.330Z,74.8199
2023-05-02T01:01:48.286Z,65.2562
2023-05-02T01:02:52.319Z,61.9113
2023-05-02T01:03:56.350Z,64.7507
2023-05-02T01:05:00.254Z,68.9420
2023-05-02T01:06:04.254Z,72.7721
2023-05-02T01:07:08.102Z,74.8856
2023-05-02T01:08:12.127Z,70.2109
2023-05-02T01:09:16.002Z,69.5688
2023-05-02T01:10:19.899Z,72.3551
2023-05-02T01:11:23.812Z,75.4078
2023-05-02T01:12:27.708Z,77.9695
2023-05-02T01:13:31.626Z,76.6098
2023-05-02T01:14:35.520Z,67.3869
2023-05-02T01:15:39.453Z,63.4722
2023-05-02T01:16:43.408Z,65.9925
2023-05-02T01:17:47.338Z,69.8855
2023-05-02T01:18:51.219Z,73.7061
2023-05-02T01:19:55.107Z,75.7561
2023-05-02T01:20:59.001Z,69.2627
2023-05-02T01:22:02.958Z,64.2541
2023-05-02T01:23:07.206Z,66.1916
2023-05-02T01:24:11.103Z,69.9265
2023-05-02T01:25:15.010Z,73.5282
2023-05-02T01:26:18.913Z,75.9504
2023-05-02T01:27:22.831Z,70.6229
2023-05-02T01:28:26.747Z,65.4238
2023-05-02T01:29:30.658Z,67.1331
2023-05-02T01:30:34.568Z,70.7077
2023-05-02T01:31:38.593Z,74.1397
2023-05-02T01:32:42.783Z,76.4395
2023-05-02T01:33:46.667Z,70.9585
2023-05-02T01:34:50.565Z,63.1705
2023-05-02T01:35:54.525Z,63.4301
2023-05-02T01:36:58.416Z,67.0865
2023-05-02T01:38:02.333Z,71.0345
2023-05-02T01:39:06.212Z,74.5035
2023-05-02T01:40:10.133Z,72.8734
2023-05-02T01:41:14.023Z,65.8329
2023-05-02T01:42:17.942Z,65.6895
2023-05-02T01:43:21.856Z,69.0025
2023-05-02T01:44:25.729Z,72.6023
2023-05-02T01:45:29.622Z,75.6243
2023-05-02T01:46:33.577Z,73.8445
2023-05-02T01:47:37.512Z,65.7486
2023-05-02T01:48:41.416Z,64.3514
2023-05-02T01:49:45.316Z,67.5425
2023-05-02T01:50:49.239Z,71.4120
2023-05-02T01:51:53.162Z,74.8066
2023-05-02T01:52:57.093Z,74.7266
2023-05-02T01:54:00.968Z,66.9488
2023-05-02T01:55:04.866Z,64.4346
2023-05-02T01:56:08.748Z,67.3088
2023-05-02T01:57:12.650Z,71.0866
2023-05-02T01:58:16.771Z,74.5238
2023-05-02T01:59:20.649Z,75.3513
2023-05-02T02:00:24.783Z,67.9742
2023-05-02T02:01:28.699Z,64.7558
2023-05-02T02:02:32.586Z,67.3951
2023-05-02T02:03:36.578Z,71.1052
2023-05-02T02:04:40.628Z,74.5721
2023-05-02T02:05:41.605Z,75.8839
2023-05-02T02:06:45.624Z,69.9373
2023-05-02T02:07:49.896Z,67.4433
2023-05-02T02:08:53.782Z,70.0612
2023-05-02T02:09:57.805Z,73.4743
2023-05-02T02:11:01.795Z,76.4268
2023-05-02T02:12:05.712Z,76.8223
2023-05-02T02:13:09.624Z,69.0957
2023-05-02T02:14:13.536Z,65.5537
2023-05-02T02:15:17.444Z,68.0042
2023-05-02T02:16:21.416Z,71.6086
2023-05-02T02:17:25.676Z,75.0604
2023-05-02T02:18:29.851Z,76.3863
2023-05-02T02:19:33.746Z,69.2234
2023-05-02T02:20:37.644Z,64.5434
2023-05-02T02:21:41.519Z,66.7369
2023-05-02T02:22:45.646Z,70.5030
2023-05-02T02:23:49.563Z,74.1339
2023-05-02T02:24:54.405Z,76.3719
2023-05-02T02:25:58.495Z,71.0777
2023-05-02T02:27:02.388Z,68.4442
2023-05-02T02:28:06.280Z,70.7930
2023-05-02T02:29:10.184Z,74.0186
2023-05-02T02:30:14.119Z,76.9087
2023-05-02T02:31:18.093Z,77.3659
2023-05-02T02:32:21.956Z,69.3366
2023-05-02T02:33:25.840Z,64.3837
2023-05-02T02:34:29.726Z,66.4598
2023-05-02T02:35:33.615Z,70.1918
2023-05-02T02:36:37.521Z,73.8546
2023-05-02T02:37:41.404Z,76.2221
2023-05-02T02:38:45.291Z,70.6478
2023-05-02T02:39:49.174Z,66.0505
2023-05-02T02:40:53.051Z,68.1082
2023-05-02T02:41:56.937Z,71.6909
2023-05-02T02:43:00.848Z,75.0782
2023-05-02T02:44:04.726Z,77.0757
2023-05-02T02:45:09.570Z,71.6595
2023-05-02T02:46:13.489Z,68.1933
2023-05-02T02:47:17.350Z,70.3910
2023-05-02T02:48:21.233Z,73.7129
2023-05-02T02:49:25.147Z,76.7143
2023-05-02T02:50:29.025Z,77.6199
2023-05-02T02:51:32.961Z,70.1519
2023-05-02T02:52:37.095Z,64.6080
2023-05-02T02:53:41.001Z,66.4056
2023-05-02T02:54:44.928Z,70.1349
2023-05-02T02:55:49.593Z,73.7850
2023-05-02T02:56:53.485Z,76.3775
2023-05-02T02:57:57.378Z,70.9649
2023-05-02T02:59:01.272Z,63.7760
2023-05-02T03:00:05.390Z,64.4788
2023-05-02T03:01:09.300Z,68.1885
2023-05-02T03:02:13.221Z,71.9921
2023-05-02T03:03:17.169Z,75.2748
2023-05-02T03:04:21.155Z,72.7139
2023-05-02T03:05:25.667Z,65.8207
2023-05-02T03:06:29.627Z,66.0891
2023-05-02T03:07:33.626Z,69.4693
2023-05-02T03:08:37.544Z,73.0044
2023-05-02T03:09:41.454Z,75.9693
2023-05-02T03:10:45.354Z,73.3576
2023-05-02T03:11:49.267Z,64.8922
2023-05-02T03:12:53.188Z,63.3375
2023-05-02T03:13:57.097Z,66.4973
2023-05-02T03:15:01.259Z,70.5039
2023-05-02T03:16:05.181Z,74.0356
2023-05-02T03:17:09.172Z,74.4602
2023-05-02T03:18:13.083Z,67.0020
2023-05-02T03:19:17.279Z,64.4638
2023-05-02T03:20:21.167Z,67.3271
2023-05-02T03:21:25.069Z,71.1233
2023-05-02T03:22:28.954Z,74.5014
2023-05-02T03:23:32.835Z,75.4780
2023-05-02T03:24:36.710Z,70.7709
2023-05-02T03:25:40.614Z,70.9663
2023-05-02T03:26:44.514Z,73.8213
2023-05-02T03:27:48.405Z,76.6500
2023-05-02T03:28:52.396Z,78.8531
2023-05-02T03:29:56.300Z,75.9035
2023-05-02T03:31:00.326Z,66.0393
2023-05-02T03:32:04.407Z,61.9971
2023-05-02T03:33:08.417Z,64.5821
2023-05-02T03:34:12.305Z,68.6017
2023-05-02T03:35:16.196Z,72.5388
2023-05-02T03:36:20.090Z,75.0351
2023-05-02T03:37:24.003Z,69.2010
2023-05-02T03:38:27.913Z,64.7199
2023-05-02T03:39:31.824Z,66.8214
2023-05-02T03:40:35.713Z,70.4975
2023-05-02T03:41:39.595Z,73.9997
2023-05-02T03:42:43.493Z,76.2178
2023-05-02T03:43:47.376Z,70.6388
2023-05-02T03:44:51.276Z,66.3531
2023-05-02T03:45:55.154Z,68.4410
2023-05-02T03:46:59.125Z,71.9340
2023-05-02T03:48:03.135Z,75.2001
2023-05-02T03:49:07.003Z,76.9820
2023-05-02T03:50:07.411Z,70.7769
2023-05-02T03:51:11.308Z,63.0613
2023-05-02T03:52:15.198Z,63.1404
2023-05-02T03:53:19.094Z,66.7900
2023-05-02T03:54:22.984Z,70.7951
2023-05-02T03:55:26.878Z,74.4057
2023-05-02T03:56:30.749Z,73.1904
2023-05-02T03:57:34.690Z,65.2940
2023-05-02T03:58:38.546Z,64.0405
2023-05-02T03:59:42.419Z,67.2817
2023-05-02T04:00:46.316Z,71.0871
2023-05-02T04:01:50.318Z,74.4904
2023-05-02T04:02:54.548Z,74.4090
2023-05-02T04:03:58.512Z,66.3801
2023-05-02T04:05:02.391Z,63.2670
2023-05-02T04:06:06.285Z,65.9781
2023-05-02T04:07:10.170Z,69.8673
2023-05-02T04:08:14.044Z,73.4601
2023-05-02T04:09:17.929Z,74.9969
2023-05-02T04:10:21.824Z,67.9989
2023-05-02T04:11:25.790Z,61.8407
2023-05-02T04:12:29.632Z,63.3138
2023-05-02T04:13:33.523Z,67.2791
2023-05-02T04:14:37.442Z,71.2664
2023-05-02T04:15:41.351Z,74.4929
2023-05-02T04:16:45.302Z,71.4316
2023-05-02T04:17:49.264Z,67.3766
2023-05-02T04:18:53.146Z,69.3132
2023-05-02T04:19:57.037Z,72.6420
2023-05-02T04:21:00.941Z,75.6516
2023-05-02T04:22:04.869Z,77.4240
2023-05-02T04:23:04.965Z,71.4314
2023-05-02T04:24:08.872Z,64.9008
2023-05-02T04:25:12.780Z,65.8502
2023-05-02T04:26:16.689Z,69.4628
2023-05-02T04:27:20.586Z,73.2183
2023-05-02T04:28:24.531Z,76.2713
2023-05-02T04:29:28.421Z,72.8998
2023-05-02T04:30:32.325Z,66.3900
2023-05-02T04:31:36.276Z,67.1108
2023-05-02T04:32:40.277Z,70.4286
2023-05-02T04:33:44.185Z,73.9450
2023-05-02T04:34:48.051Z,76.7081
2023-05-02T04:35:52.213Z,73.1191
2023-05-02T04:36:56.117Z,64.7524
2023-05-02T04:38:00.256Z,63.8807
2023-05-02T04:39:04.173Z,67.2423
2023-05-02T04:40:08.109Z,71.1661
2023-05-02T04:41:12.007Z,74.6802
2023-05-02T04:42:15.914Z,74.2702
2023-05-02T04:43:19.822Z,66.2164
2023-05-02T04:44:23.735Z,63.7365
2023-05-02T04:45:27.873Z,66.7328
2023-05-02T04:46:31.886Z,70.5928
2023-05-02T04:47:35.824Z,74.1745
2023-05-02T04:48:39.723Z,75.1638
2023-05-02T04:49:43.621Z,68.6522
2023-05-02T04:50:47.509Z,66.9380
2023-05-02T04:51:51.407Z,69.8809
2023-05-02T04:52:55.317Z,73.3330
2023-05-02T04:53:59.235Z,76.3359
2023-05-02T04:55:03.133Z,76.2281
2023-05-02T04:56:07.013Z,69.1297
2023-05-02T04:57:11.040Z,67.8028
2023-05-02T04:58:14.964Z,70.6857
2023-05-02T04:59:18.866Z,74.0866
2023-05-02T05:00:19.268Z,76.9609
2023-05-02T05:01:23.180Z,76.4230
2023-05-02T05:02:27.302Z,67.8813
2023-05-02T05:03:31.338Z,64.2295
2023-05-02T05:04:35.232Z,66.8200
2023-05-02T05:05:39.254Z,70.5719
2023-05-02T05:06:43.259Z,74.2399
2023-05-02T05:07:47.125Z,75.9853
2023-05-02T05:08:51.011Z,69.0951
2023-05-02T05:09:54.940Z,63.4018
2023-05-02T05:10:59.125Z,65.0402
2023-05-02T05:12:03.037Z,68.8709
2023-05-02T05:13:07.183Z,72.6538
2023-05-02T05:14:11.111Z,75.4786
2023-05-02T05:15:15.008Z,70.9769
2023-05-02T05:16:18.981Z,63.6901
2023-05-02T05:17:22.920Z,64.1047
2023-05-02T05:18:26.793Z,67.7818
2023-05-02T05:19:30.681Z,71.6377
2023-05-02T05:20:34.562Z,74.9510
2023-05-02T05:23:09.552Z,54.6387
2023-05-02T05:24:11.308Z,53.0589
2023-05-02T05:25:13.017Z,49.0638
2023-05-02T05:26:14.720Z,49.3196
2023-05-02T05:27:16.481Z,53.6403
2023-05-02T05:28:18.187Z,58.7857
2023-05-02T05:29:19.900Z,63.6838
2023-05-02T05:30:21.627Z,67.9004
2023-05-02T05:31:23.348Z,66.6047
2023-05-02T05:32:25.109Z,66.7883
2023-05-02T05:33:26.907Z,69.9020
2023-05-02T05:34:28.530Z,73.3046
2023-05-02T05:35:30.248Z,76.4891
2023-05-02T05:36:31.937Z,77.4835
2023-05-02T05:37:33.653Z,69.9876
2023-05-02T05:38:35.377Z,64.8189
2023-05-02T05:39:37.111Z,66.4477
2023-05-02T05:40:38.820Z,69.9396
2023-05-02T05:41:40.542Z,73.4605
2023-05-02T05:42:42.261Z,76.3519
2023-05-02T05:43:43.970Z,72.5332
2023-05-02T05:44:45.736Z,66.7014
2023-05-02T05:45:47.440Z,67.5712
2023-05-02T05:46:50.024Z,70.7450
2023-05-02T05:47:50.921Z,74.0980
2023-05-02T05:48:52.603Z,76.9731
2023-05-02T05:49:54.321Z,74.3484
2023-05-02T05:50:56.031Z,66.5660
2023-05-02T05:51:57.762Z,65.4586
2023-05-02T05:52:59.482Z,68.4095
2023-05-02T05:54:01.191Z,71.9569
2023-05-02T05:55:02.885Z,75.2528
2023-05-02T05:56:04.609Z,75.7081
2023-05-02T05:57:06.339Z,68.0699
2023-05-02T05:58:08.060Z,63.7864
2023-05-02T05:59:09.784Z,65.7958
2023-05-02T06:00:11.503Z,69.4122
2023-05-02T06:01:13.215Z,72.9853
2023-05-02T06:02:15.001Z,75.6561
2023-05-02T06:03:16.705Z,71.2107
2023-05-02T06:04:18.367Z,63.1320
2023-05-02T06:05:20.105Z,62.2595
2023-05-02T06:06:21.894Z,65.4717
2023-05-02T06:07:23.533Z,69.3782
2023-05-02T06:08:25.264Z,72.9592
2023-05-02T06:09:26.979Z,74.1607
2023-05-02T06:10:28.787Z,67.0807
2023-05-02T06:11:30.415Z,61.1721
2023-05-02T06:12:32.139Z,62.3674
2023-05-02T06:13:33.854Z,66.0202
2023-05-02T06:14:35.586Z,69.9817
2023-05-02T06:15:37.365Z,73.3728
2023-05-02T06:16:39.128Z,71.9389
2023-05-02T06:17:40.747Z,64.0854
2023-05-02T06:18:42.428Z,61.8881
2023-05-02T06:19:44.151Z,64.6666
2023-05-02T06:20:45.892Z,68.5287
2023-05-02T06:21:47.619Z,72.1073
2023-05-02T06:22:49.338Z,74.2322
2023-05-02T06:23:51.053Z,68.7312
2023-05-02T06:24:52.768Z,64.1600
2023-05-02T06:25:54.494Z,65.9343
2023-05-02T06:26:56.231Z,69.4892
2023-05-02T06:27:57.939Z,72.9263
2023-05-02T06:28:59.664Z,75.6153
2023-05-02T06:30:01.623Z,72.2453
2023-05-02T06:31:03.190Z,67.9048
2023-05-02T06:32:04.874Z,68.5584
2023-05-02T06:33:06.584Z,71.3889
2023-05-02T06:34:08.246Z,74.3568
2023-05-02T06:35:09.992Z,76.6969
2023-05-02T06:36:11.661Z,72.8213
2023-05-02T06:37:13.391Z,64.0265
2023-05-02T06:38:15.106Z,61.7185
2023-05-02T06:39:16.827Z,64.5373
2023-05-02T06:40:18.537Z,68.4221
2023-05-02T06:41:20.299Z,72.1156
2023-05-02T06:42:21.986Z,74.3845
2023-05-02T06:43:23.710Z,68.5946
2023-05-02T06:44:25.469Z,61.5192
2023-05-02T06:45:27.165Z,61.7934
2023-05-02T06:46:28.895Z,65.2670
2023-05-02T06:47:30.701Z,69.2542
2023-05-02T06:48:32.319Z,72.7781
2023-05-02T06:49:34.032Z,72.9152
2023-05-02T06:50:35.775Z,66.1319
2023-05-02T06:51:37.503Z,64.4813
2023-05-02T06:52:39.205Z,67.3284
2023-05-02T06:53:40.970Z,70.8635
2023-05-02T06:54:42.659Z,74.0605
2023-05-02T06:55:44.379Z,75.2876
2023-05-02T06:56:46.111Z,68.5833
2023-05-02T06:57:47.822Z,63.6794
2023-05-02T06:58:49.556Z,65.3649
2023-05-02T06:59:51.308Z,68.9343
2023-05-02T07:00:53.005Z,72.4961
2023-05-02T07:01:54.717Z,75.2879
2023-05-02T07:02:56.487Z,71.9239
2023-05-02T07:03:58.196Z,65.4587
2023-05-02T07:04:59.883Z,65.8979
2023-05-02T07:06:01.684Z,69.1839
2023-05-02T07:07:03.333Z,72.6426
2023-05-02T07:08:05.053Z,75.6440
2023-05-02T07:09:06.784Z,74.2688
2023-05-02T07:10:08.505Z,67.3050
2023-05-02T07:11:10.241Z,66.5025
2023-05-02T07:12:11.935Z,69.4354
2023-05-02T07:13:13.653Z,72.8588
2023-05-02T07:14:15.378Z,75.8633
2023-05-02T07:15:17.065Z,75.8886
2023-05-02T07:16:18.846Z,68.1954
2023-05-02T07:17:20.540Z,64.5689
2023-05-02T07:18:22.236Z,66.8238
2023-05-02T07:19:23.954Z,70.3526
2023-05-02T07:20:25.743Z,73.8057
2023-05-02T07:21:27.419Z,72.9536
2023-05-02T07:22:29.115Z,64.0049
2023-05-02T07:23:30.847Z,60.6755
2023-05-02T07:24:32.568Z,59.2238
2023-05-02T07:25:34.279Z,58.4378
2023-05-02T07:26:35.996Z,57.9105
2023-05-02T07:27:37.742Z,57.5780
2023-05-02T07:28:39.453Z,57.3365
2023-05-02T07:29:41.183Z,57.1831
2023-05-02T07:30:42.891Z,57.0607
2023-05-02T07:31:44.668Z,56.9323
2023-05-02T07:32:46.393Z,56.8195
2023-05-02T07:33:48.065Z,56.7292
2023-05-02T07:34:49.758Z,56.5961
2023-05-02T07:35:51.485Z,56.5190
2023-05-02T07:36:53.203Z,56.4772
2023-05-02T07:37:54.997Z,56.4231
2023-05-02T07:38:57.448Z,56.3772
2023-05-02T07:40:01.598Z,56.3643
2023-05-02T07:41:05.779Z,56.3024
2023-05-02T07:42:09.674Z,56.2754
2023-05-02T07:43:13.563Z,56.2614
2023-05-02T07:44:17.438Z,56.2110
2023-05-02T07:45:21.492Z,56.1764
2023-05-02T07:46:25.554Z,56.1499
2023-05-02T07:47:33.434Z,56.0939
2023-05-02T07:48:32.029Z,56.1105
2023-05-02T07:49:35.907Z,56.1019
2023-05-02T07:50:39.823Z,56.1035
2023-05-02T07:51:44.581Z,56.0843
2023-05-02T07:52:48.875Z,56.0729
2023-05-02T07:53:52.278Z,56.0235
2023-05-02T07:54:56.181Z,55.9803
2023-05-02T07:56:00.134Z,55.9633
2023-05-02T07:57:04.148Z,55.9692
2023-05-02T07:58:08.041Z,55.9816
2023-05-02T07:59:12.176Z,55.9350
2023-05-02T08:00:16.135Z,55.8656
2023-05-02T08:01:20.027Z,55.8266
2023-05-02T08:02:25.852Z,55.8088
2023-05-02T08:03:24.800Z,55.7531
2023-05-02T08:04:30.610Z,55.7250
2023-05-02T08:05:29.297Z,55.7316
2023-05-02T08:06:33.252Z,55.7051
2023-05-02T08:07:37.390Z,55.6685
2023-05-02T08:08:41.330Z,55.6244
2023-05-02T08:09:45.243Z,55.5885
2023-05-02T08:10:49.281Z,55.5529
2023-05-02T08:11:53.178Z,55.5520
2023-05-02T08:12:59.384Z,55.5628
2023-05-02T08:13:58.490Z,55.5536
2023-05-02T08:14:58.916Z,54.7437
2023-05-02T08:16:02.914Z,50.1965
2023-05-02T08:17:06.790Z,45.9817
2023-05-02T08:18:10.804Z,45.7503
2023-05-02T08:19:14.726Z,50.3563
2023-05-02T08:20:18.596Z,56.0364
2023-05-02T08:21:22.517Z,61.6032
2023-05-02T08:22:26.390Z,66.4336
2023-05-02T08:23:30.308Z,66.9069
2023-05-02T08:24:34.210Z,68.3197
2023-05-02T08:25:38.156Z,71.8327
2023-05-02T08:26:42.073Z,75.5561
2023-05-02T08:27:45.987Z,78.8043
2023-05-02T08:28:49.890Z,78.3597
2023-05-02T08:29:53.839Z,69.3127
2023-05-02T08:30:57.724Z,62.6345
2023-05-02T08:32:01.728Z,63.7609
2023-05-02T08:33:05.706Z,67.6511
2023-05-02T08:34:09.614Z,71.7504
2023-05-02T08:35:13.493Z,75.4745
2023-05-02T08:36:17.378Z,73.1059
2023-05-02T08:37:21.301Z,66.0948
2023-05-02T08:38:25.186Z,65.9819
2023-05-02T08:39:29.082Z,69.3521
2023-05-02T08:40:41.571Z,73.2615
2023-05-02T08:41:37.461Z,77.1325
2023-05-02T08:42:41.375Z,75.7465
2023-05-02T08:43:45.406Z,67.3692
2023-05-02T08:44:49.298Z,64.6631
2023-05-02T08:45:53.202Z,67.3514
2023-05-02T08:46:57.160Z,71.3015
2023-05-02T08:48:01.146Z,75.1692
2023-05-02T08:49:05.015Z,76.8813
2023-05-02T08:50:09.188Z,69.7227
2023-05-02T08:51:13.087Z,64.4633
2023-05-02T08:52:16.995Z,66.0806
2023-05-02T08:53:20.927Z,69.9343
2023-05-02T08:54:25.025Z,73.8996
2023-05-02T08:55:28.946Z,77.0559
2023-05-02T08:56:32.868Z,72.6045
2023-05-02T08:57:37.097Z,67.4262
2023-05-02T08:58:41.046Z,68.8519
2023-05-02T08:59:44.910Z,72.3278
2023-05-02T09:00:48.831Z,76.0452
2023-05-02T09:01:52.723Z,78.8367
2023-05-02T09:02:56.636Z,73.7043
2023-05-02T09:04:00.609Z,66.2727
2023-05-02T09:05:04.514Z,66.4073
2023-05-02T09:06:08.432Z,69.7751
2023-05-02T09:07:12.328Z,73.6849
2023-05-02T09:08:16.213Z,77.2348
2023-05-02T09:09:20.127Z,75.1848
2023-05-02T09:10:24.039Z,67.4002
2023-05-02T09:11:27.991Z,66.2900
2023-05-02T09:12:32.087Z,69.3651
2023-05-02T09:13:35.996Z,73.2332
2023-05-02T09:14:39.875Z,76.9301
2023-05-02T09:15:43.781Z,76.4163
2023-05-02T09:16:47.793Z,68.0260
2023-05-02T09:17:51.982Z,64.8753
2023-05-02T09:18:55.918Z,67.4933
2023-05-02T09:19:59.936Z,71.3736
2023-05-02T09:21:03.849Z,75.3171
2023-05-02T09:22:07.768Z,77.1376
2023-05-02T09:23:11.682Z,69.9643
2023-05-02T09:24:15.614Z,65.2297
2023-05-02T09:25:19.753Z,67.1800
2023-05-02T09:26:23.675Z,70.9051
2023-05-02T09:27:27.532Z,74.8095
2023-05-02T09:28:31.430Z,77.5392
2023-05-02T09:29:35.349Z,71.8903
2023-05-02T09:30:39.296Z,65.3006
2023-05-02T09:31:55.616Z,66.1435
2023-05-02T09:32:47.748Z,69.9079
2023-05-02T09:33:51.640Z,73.6295
2023-05-02T09:34:55.552Z,77.0612
2023-05-02T09:35:59.438Z,72.8818
2023-05-02T09:37:03.363Z,63.8668
2023-05-02T09:38:07.231Z,62.6429
2023-05-02T09:39:11.132Z,65.9953
2023-05-02T09:40:15.065Z,70.2070
2023-05-02T09:41:18.945Z,74.3047
2023-05-02T09:42:22.858Z,75.2726
2023-05-02T09:43:26.755Z,68.1928
2023-05-02T09:44:30.752Z,66.0741
2023-05-02T09:45:35.362Z,68.9561
2023-05-02T09:46:39.404Z,72.6929
2023-05-02T09:47:43.304Z,76.4955
2023-05-02T09:48:47.162Z,77.1881
2023-05-02T09:49:51.069Z,68.8338
2023-05-02T09:50:54.989Z,62.8110
2023-05-02T09:51:58.890Z,64.2555
2023-05-02T09:53:02.928Z,68.1819
2023-05-02T09:54:06.925Z,72.3141
2023-05-02T09:55:10.789Z,75.8411
2023-05-02T09:56:14.710Z,72.3532
2023-05-02T09:57:18.643Z,65.7328
2023-05-02T09:58:22.535Z,66.3053
2023-05-02T09:59:26.425Z,69.8425
2023-05-02T10:00:30.347Z,73.6743
2023-05-02T10:01:34.269Z,77.1750
2023-05-02T10:02:38.258Z,74.4283
2023-05-02T10:03:42.187Z,65.8379
2023-05-02T10:04:46.144Z,64.2766
2023-05-02T10:05:50.071Z,67.3765
2023-05-02T10:06:53.978Z,71.3107
2023-05-02T10:07:57.893Z,75.1897
2023-05-02T10:09:01.817Z,75.6831
2023-05-02T10:10:05.733Z,68.3208
2023-05-02T10:11:09.633Z,66.1673
2023-05-02T10:12:13.564Z,68.9653
2023-05-02T10:13:17.475Z,72.7306
2023-05-02T10:14:21.491Z,76.3648
2023-05-02T10:15:25.374Z,77.0822
2023-05-02T10:16:29.290Z,69.6826
2023-05-02T10:17:33.550Z,67.0633
2023-05-02T10:18:37.458Z,69.6879
2023-05-02T10:19:41.370Z,73.4505
2023-05-02T10:20:45.257Z,77.0533
2023-05-02T10:21:49.178Z,77.8121
2023-05-02T10:22:53.100Z,71.0595
2023-05-02T10:23:56.993Z,69.4168
2023-05-02T10:25:01.201Z,72.0852
2023-05-02T10:26:05.365Z,75.6631
2023-05-02T10:27:09.295Z,78.8961
2023-05-02T10:28:13.194Z,78.1957
2023-05-02T10:29:17.145Z,69.4134
2023-05-02T10:30:21.039Z,65.8143
2023-05-02T10:31:24.960Z,68.1936
2023-05-02T10:32:29.219Z,71.8666
2023-05-02T10:33:33.125Z,75.6746
2023-05-02T10:34:36.988Z,77.2753
2023-05-02T10:35:40.959Z,69.8985
2023-05-02T10:36:44.826Z,64.2657
2023-05-02T10:37:48.896Z,65.8154
2023-05-02T10:38:52.792Z,69.5918
2023-05-02T10:39:56.693Z,73.6224
2023-05-02T10:41:00.576Z,76.7712
2023-05-02T10:42:04.488Z,72.3672
2023-05-02T10:43:08.414Z,67.3499
2023-05-02T10:44:12.323Z,68.9261
2023-05-02T10:45:16.234Z,72.3662
2023-05-02T10:46:20.189Z,75.9839
2023-05-02T10:47:24.152Z,78.5917
2023-05-02T10:48:28.104Z,73.1144
2023-05-02T10:49:32.029Z,64.6801
2023-05-02T10:50:36.138Z,64.0349
2023-05-02T10:51:40.044Z,67.4516
2023-05-02T10:52:43.951Z,71.4668
2023-05-02T10:53:47.893Z,75.2853
2023-05-02T10:54:51.810Z,74.7416
2023-05-02T10:55:55.717Z,66.9718
2023-05-02T10:56:59.625Z,65.2103
2023-05-02T10:58:03.529Z,68.2247
2023-05-02T10:59:07.435Z,72.0439
2023-05-02T11:00:07.632Z,75.7513
2023-05-02T11:01:11.587Z,76.6055
2023-05-02T11:02:15.708Z,68.9743
2023-05-02T11:03:19.642Z,65.4007
2023-05-02T11:04:23.532Z,67.8095
2023-05-02T11:05:27.399Z,71.5173
2023-05-02T11:06:31.323Z,75.2735
2023-05-02T11:07:35.234Z,77.1468
2023-05-02T11:08:39.167Z,70.3022
2023-05-02T11:09:43.056Z,65.9280
2023-05-02T11:10:46.986Z,67.9607
2023-05-02T11:11:50.899Z,71.5520
2023-05-02T11:12:54.797Z,75.2392
2023-05-02T11:13:58.698Z,77.5597
2023-05-02T11:15:02.790Z,71.2419
2023-05-02T11:16:06.920Z,64.8280
2023-05-02T11:17:10.786Z,65.9740
2023-05-02T11:18:14.811Z,69.6051
2023-05-02T11:19:18.678Z,73.4243
2023-05-02T11:20:22.549Z,76.7312
2023-05-02T11:21:26.442Z,72.8052
2023-05-02T11:22:30.350Z,65.1358
2023-05-02T11:23:34.219Z,64.8782
2023-05-02T11:24:38.142Z,68.2798
2023-05-02T11:25:42.098Z,72.1957
2023-05-02T11:26:45.978Z,75.8801
2023-05-02T11:27:49.917Z,74.6068
2023-05-02T11:28:53.809Z,67.2640
2023-05-02T11:29:57.723Z,66.3867
2023-05-02T11:31:01.614Z,69.4550
2023-05-02T11:32:05.554Z,73.2471
2023-05-02T11:33:09.470Z,76.8244
2023-05-02T11:34:13.333Z,75.8132
2023-05-02T11:35:17.228Z,67.2310
2023-05-02T11:36:21.147Z,64.1296
2023-05-02T11:37:25.049Z,66.7450
2023-05-02T11:38:28.992Z,70.6090
2023-05-02T11:39:32.890Z,74.4631
2023-05-02T11:40:36.799Z,76.1242
2023-05-02T11:41:40.724Z,68.9564
2023-05-02T11:42:44.632Z,64.3159
2023-05-02T11:43:48.542Z,66.2823
2023-05-02T11:44:52.461Z,70.0459
2023-05-02T11:45:56.463Z,73.9316
2023-05-02T11:47:00.385Z,76.6430
2023-05-02T11:48:04.349Z,70.9053
2023-05-02T11:49:09.334Z,65.2508
2023-05-02T11:50:08.754Z,66.5688
2023-05-02T11:51:12.680Z,70.0071
2023-05-02T11:52:16.607Z,73.8290
2023-05-02T11:53:20.512Z,77.0336
2023-05-02T11:54:24.434Z,72.8233
2023-05-02T11:55:28.580Z,65.4996
2023-05-02T11:56:32.467Z,65.6043
2023-05-02T11:57:36.437Z,68.9741
2023-05-02T11:58:40.347Z,72.8043
2023-05-02T11:59:44.259Z,76.3518
2023-05-02T12:00:48.179Z,74.3020
2023-05-02T12:01:52.086Z,66.4003
2023-05-02T12:02:56.186Z,65.2280
2023-05-02T12:04:00.140Z,68.3685
2023-05-02T12:05:04.331Z,72.1769
2023-05-02T12:06:08.516Z,75.8664
2023-05-02T12:07:12.523Z,75.4712
2023-05-02T12:08:16.397Z,67.8341
2023-05-02T12:09:20.299Z,66.0940
2023-05-02T12:10:24.190Z,68.9926
2023-05-02T12:11:28.060Z,72.6238
2023-05-02T12:12:31.975Z,76.2525
2023-05-02T12:13:35.896Z,76.3663
2023-05-02T12:14:39.802Z,67.9574
2023-05-02T12:15:43.737Z,64.1013
2023-05-02T12:16:47.833Z,66.4289
2023-05-02T12:17:51.834Z,70.1908
2023-05-02T12:18:55.715Z,74.0224
2023-05-02T12:19:59.876Z,76.2548
2023-05-02T12:21:03.768Z,69.6627
2023-05-02T12:22:07.673Z,63.1044
2023-05-02T12:23:11.577Z,64.0034
2023-05-02T12:24:15.484Z,67.6909
2023-05-02T12:25:19.384Z,71.6764
2023-05-02T12:26:23.317Z,75.2660
2023-05-02T12:27:27.238Z,72.4594
2023-05-02T12:28:31.145Z,64.6802
2023-05-02T12:29:35.050Z,64.0209
2023-05-02T12:30:38.969Z,67.3890
2023-05-02T12:31:42.877Z,71.3721
2023-05-02T12:32:46.761Z,75.1624
2023-05-02T12:33:50.762Z,74.8539
2023-05-02T12:34:54.903Z,71.1109
2023-05-02T12:35:58.811Z,72.4707
2023-05-02T12:37:02.747Z,75.5450
2023-05-02T12:38:06.705Z,78.5876
2023-05-02T12:39:10.600Z,80.6976
2023-05-02T12:40:14.666Z,74.8203
2023-05-02T12:41:18.570Z,65.1466
2023-05-02T12:42:22.460Z,63.0407
2023-05-02T12:43:26.583Z,66.0748
2023-05-02T12:44:30.436Z,70.1800
2023-05-02T12:45:34.358Z,74.0351
2023-05-02T12:46:38.253Z,75.1129
2023-05-02T12:47:42.199Z,68.1119
2023-05-02T12:48:46.838Z,65.3853